createdAt,value
2018-04-17T00:00:18.886Z,97913.40
2018-04-17T00:02:46.445Z,97913.37
2018-04-17T00:05:13.993Z,97920.59
2018-04-17T00:07:41.576Z,97924.33
2018-04-17T00:10:09.182Z,97929.52
2018-04-17T00:12:36.728Z,97927.22
2018-04-17T00:15:04.282Z,97936.06
2018-04-17T00:17:31.862Z,97934.03
2018-04-17T00:19:59.417Z,97936.88
2018-04-17T00:22:27.013Z,97931.59
2018-04-17T00:24:54.609Z,97938.69
2018-04-17T00:27:22.171Z,97942.68
2018-04-17T00:29:49.743Z,97941.86
2018-04-17T00:32:17.298Z,97944.85
2018-04-17T00:34:44.887Z,97939.03
2018-04-17T00:37:12.465Z,97943.24
2018-04-17T00:39:40.021Z,97943.16
2018-04-17T00:42:07.598Z,97941.06
2018-04-17T00:44:35.190Z,97944.56
2018-04-17T00:47:02.774Z,97941.42
2018-04-17T00:49:30.338Z,97943.96
2018-04-17T00:51:57.892Z,97947.38
2018-04-17T00:54:25.478Z,97939.56
2018-04-17T00:56:53.032Z,97946.41
2018-04-17T00:59:20.608Z,97949.98
2018-04-17T01:01:48.171Z,97953.16
2018-04-17T01:04:15.720Z,97960.98
2018-04-17T01:06:43.289Z,97962.70
2018-04-17T01:09:10.845Z,97965.87
2018-04-17T01:11:39.417Z,97971.10
2018-04-17T01:14:06.977Z,97965.52
2018-04-17T01:16:34.532Z,97969.81
2018-04-17T01:19:02.109Z,97962.34
2018-04-17T01:21:29.670Z,97889.23
2018-04-17T01:23:57.266Z,97966.45
2018-04-17T01:26:24.829Z,97969.77
2018-04-17T01:28:52.856Z,97971.19
2018-04-17T01:31:20.428Z,97970.81
2018-04-17T01:33:47.992Z,97973.52
2018-04-17T01:36:15.597Z,97978.83
2018-04-17T01:38:43.159Z,97978.78
2018-04-17T01:41:10.717Z,97978.80
2018-04-17T01:43:38.294Z,97983.38
2018-04-17T01:46:05.836Z,97983.69
2018-04-17T01:48:33.430Z,97984.38
2018-04-17T01:51:01.010Z,97988.59
2018-04-17T01:53:28.567Z,97987.53
2018-04-17T01:55:56.142Z,97987.02
2018-04-17T01:58:23.752Z,97984.20
2018-04-17T02:00:51.321Z,97986.19
2018-04-17T02:03:18.905Z,97992.30
2018-04-17T02:05:46.456Z,97994.16
2018-04-17T02:08:14.040Z,97990.54
2018-04-17T02:10:41.592Z,97996.69
2018-04-17T02:13:09.160Z,97994.88
2018-04-17T02:15:36.721Z,97999.70
2018-04-17T02:18:04.277Z,97999.45
2018-04-17T02:20:31.873Z,98004.45
2018-04-17T02:22:59.432Z,98007.88
2018-04-17T02:25:27.010Z,98002.95
2018-04-17T02:27:54.568Z,98010.50
2018-04-17T02:30:22.120Z,98006.33
2018-04-17T02:32:49.693Z,98012.16
2018-04-17T02:35:17.241Z,98008.82
2018-04-17T02:37:44.825Z,98008.12
2018-04-17T02:40:12.386Z,98007.02
2018-04-17T02:42:39.949Z,98012.59
2018-04-17T02:45:07.538Z,98013.33
2018-04-17T02:47:35.197Z,98013.03
2018-04-17T02:50:02.781Z,98021.36
2018-04-17T02:52:30.337Z,98023.78
2018-04-17T02:54:57.892Z,98029.07
2018-04-17T02:57:25.477Z,98030.88
2018-04-17T02:59:53.061Z,98032.05
2018-04-17T03:02:21.497Z,98031.80
2018-04-17T03:04:49.049Z,98029.04
2018-04-17T03:07:16.609Z,98033.42
2018-04-17T03:09:44.181Z,98033.81
2018-04-17T03:12:11.737Z,98047.23
2018-04-17T03:14:39.318Z,98048.92
2018-04-17T03:17:06.865Z,98057.25
2018-04-17T03:19:34.421Z,98053.94
2018-04-17T03:22:02.012Z,98057.78
2018-04-17T03:24:29.566Z,98057.38
2018-04-17T03:26:57.285Z,98061.91
2018-04-17T03:29:25.299Z,98059.77
2018-04-17T03:31:52.846Z,98059.72
2018-04-17T03:34:20.425Z,98062.28
2018-04-17T03:36:48.087Z,98069.36
2018-04-17T03:39:15.719Z,98064.84
2018-04-17T03:41:43.308Z,98060.81
2018-04-17T03:44:10.940Z,98060.64
2018-04-17T03:46:38.544Z,98056.25
2018-04-17T03:49:06.175Z,98060.69
2018-04-17T03:51:33.822Z,98066.09
2018-04-17T03:54:01.416Z,98074.06
2018-04-17T03:56:29.029Z,98081.32
2018-04-17T03:58:56.617Z,98085.03
2018-04-17T04:01:24.185Z,98086.20
2018-04-17T04:03:51.760Z,98090.28
2018-04-17T04:06:19.313Z,98093.23
2018-04-17T04:08:46.868Z,98095.61
2018-04-17T04:11:14.444Z,98104.83
2018-04-17T04:13:41.984Z,98107.58
2018-04-17T04:19:24.052Z,98121.13
2018-04-17T04:22:04.451Z,98129.91
2018-04-17T04:24:43.688Z,98131.16
2018-04-17T04:27:11.251Z,98124.98
2018-04-17T04:29:38.824Z,98123.83
2018-04-17T04:32:06.397Z,98127.17
2018-04-17T04:34:33.944Z,98139.25
2018-04-17T04:37:01.488Z,98141.93
2018-04-17T04:39:29.052Z,98139.28
2018-04-17T04:41:56.596Z,98144.63
2018-04-17T04:44:24.181Z,98139.66
2018-04-17T04:46:51.733Z,98148.31
2018-04-17T04:49:19.281Z,98155.61
2018-04-17T04:51:46.852Z,98160.05
2018-04-17T04:54:14.395Z,98156.33
2018-04-17T04:56:41.994Z,98163.84
2018-04-17T04:59:09.550Z,98155.85
2018-04-17T05:01:37.105Z,98166.50
2018-04-17T05:04:04.685Z,98167.84
2018-04-17T05:06:32.296Z,98170.17
2018-04-17T05:08:59.873Z,98169.12
2018-04-17T05:11:27.417Z,98178.98
2018-04-17T05:13:54.960Z,98192.53
2018-04-17T05:16:22.534Z,98188.63
2018-04-17T05:18:50.080Z,98206.45
2018-04-17T05:21:17.648Z,98204.73
2018-04-17T05:23:45.263Z,98205.35
2018-04-17T05:26:12.789Z,98210.23
2018-04-17T05:28:40.379Z,98209.58
2018-04-17T05:31:07.937Z,98213.98
2018-04-17T05:33:36.521Z,98214.48
2018-04-17T05:36:04.102Z,98217.08
2018-04-17T05:38:31.651Z,98233.55
2018-04-17T05:40:59.226Z,98234.27
2018-04-17T05:43:26.728Z,98235.92
2018-04-17T05:45:54.249Z,98243.88
2018-04-17T05:48:21.744Z,98248.62
2018-04-17T05:50:49.241Z,98244.03
2018-04-17T05:53:16.773Z,98239.23
2018-04-17T05:55:44.343Z,98241.59
2018-04-17T05:58:11.831Z,98246.14
2018-04-17T06:00:39.334Z,98248.81
2018-04-17T06:03:06.835Z,98232.54
2018-04-17T06:05:34.353Z,98239.36
2018-04-17T06:08:01.849Z,98238.13
2018-04-17T06:10:29.378Z,98233.81
2018-04-17T06:12:56.881Z,98237.49
2018-04-17T06:15:24.414Z,98240.36
2018-04-17T06:17:51.941Z,98249.86
2018-04-17T06:20:19.482Z,98253.16
2018-04-17T06:22:47.015Z,98253.97
2018-04-17T06:25:14.514Z,98268.54
2018-04-17T06:27:42.012Z,98271.45
2018-04-17T06:30:09.529Z,98280.77
2018-04-17T06:32:37.029Z,98274.71
2018-04-17T06:35:04.605Z,98287.53
2018-04-17T06:37:32.060Z,98283.30
2018-04-17T06:39:59.553Z,98285.19
2018-04-17T06:42:27.066Z,98284.85
2018-04-17T06:44:54.556Z,98289.69
2018-04-17T06:47:22.116Z,98293.81
2018-04-17T06:49:49.590Z,98285.95
2018-04-17T06:52:17.080Z,98292.40
2018-04-17T06:54:44.589Z,98235.86
2018-04-17T06:57:12.086Z,98279.51
2018-04-17T06:59:39.608Z,98277.39
2018-04-17T07:02:07.098Z,98290.58
2018-04-17T07:04:34.607Z,98289.82
2018-04-17T07:07:02.126Z,98282.34
2018-04-17T07:09:29.627Z,98297.70
2018-04-17T07:11:57.156Z,98300.23
2018-04-17T07:14:24.659Z,98294.53
2018-04-17T07:16:52.156Z,98305.92
2018-04-17T07:19:19.694Z,98308.66
2018-04-17T07:21:47.193Z,98301.05
2018-04-17T07:24:14.713Z,98295.19
2018-04-17T07:26:42.206Z,98303.19
2018-04-17T07:29:09.712Z,98302.63
2018-04-17T07:31:37.230Z,98301.55
2018-04-17T07:34:04.726Z,98296.77
2018-04-17T07:36:32.245Z,98295.54
2018-04-17T07:38:59.741Z,98295.06
2018-04-17T07:41:27.342Z,98300.34
2018-04-17T07:43:54.776Z,98290.59
2018-04-17T07:46:22.279Z,98300.00
2018-04-17T07:48:50.701Z,98305.15
2018-04-17T07:51:18.188Z,98303.59
2018-04-17T07:53:45.712Z,98304.44
2018-04-17T07:56:13.204Z,98305.34
2018-04-17T07:58:40.702Z,98313.47
2018-04-17T08:01:08.225Z,98315.59
2018-04-17T08:03:35.721Z,98316.47
2018-04-17T08:06:03.237Z,98311.16
2018-04-17T08:08:30.733Z,98314.69
2018-04-17T08:10:58.226Z,98309.77
2018-04-17T08:13:25.751Z,98314.38
2018-04-17T08:15:53.240Z,98311.86
2018-04-17T08:18:20.760Z,98308.41
2018-04-17T08:20:48.253Z,98319.41
2018-04-17T08:23:16.674Z,98317.30
2018-04-17T08:25:44.209Z,98327.80
2018-04-17T08:28:11.759Z,98317.64
2018-04-17T08:30:39.306Z,98320.21
2018-04-17T08:33:06.802Z,98324.93
2018-04-17T08:35:34.290Z,98331.43
2018-04-17T08:38:01.814Z,98340.27
2018-04-17T08:40:29.323Z,98336.23
2018-04-17T08:42:56.847Z,98336.12
2018-04-17T08:45:24.406Z,98344.33
2018-04-17T08:47:51.901Z,98337.78
2018-04-17T08:50:19.412Z,98351.97
2018-04-17T08:52:46.913Z,98354.48
2018-04-17T08:55:14.438Z,98364.03
2018-04-17T08:57:41.929Z,98371.91
2018-04-17T09:00:09.427Z,98367.82
2018-04-17T09:02:36.938Z,98372.48
2018-04-17T09:05:04.430Z,98380.61
2018-04-17T09:07:31.942Z,98384.98
2018-04-17T09:09:59.438Z,98390.69
2018-04-17T09:12:26.934Z,98374.28
2018-04-17T09:14:54.456Z,98374.00
2018-04-17T09:17:21.945Z,98376.27
2018-04-17T09:19:49.470Z,98371.71
2018-04-17T09:22:16.971Z,98370.50
2018-04-17T09:24:44.465Z,98375.63
2018-04-17T09:27:11.985Z,98375.02
2018-04-17T09:29:39.482Z,98381.70
2018-04-17T09:32:07.973Z,98383.26
2018-04-17T09:34:35.546Z,98375.59
2018-04-17T09:37:03.011Z,98369.73
2018-04-17T09:39:30.534Z,98375.64
2018-04-17T09:41:58.036Z,98373.44
2018-04-17T09:44:26.422Z,98375.38
2018-04-17T09:46:53.915Z,98370.50
2018-04-17T09:49:21.413Z,98378.44
2018-04-17T09:51:48.925Z,98377.95
2018-04-17T09:54:16.425Z,98373.64
2018-04-17T09:56:43.922Z,98371.07
2018-04-17T09:59:11.453Z,98361.67
2018-04-17T10:01:38.952Z,98368.16
2018-04-17T10:04:06.457Z,98371.50
2018-04-17T10:06:33.988Z,98367.02
2018-04-17T10:09:01.624Z,98357.38
2018-04-17T10:11:29.100Z,98362.50
2018-04-17T10:13:56.674Z,98368.02
2018-04-17T10:16:24.169Z,98362.00
2018-04-17T10:18:51.681Z,98358.02
2018-04-17T10:21:19.234Z,98332.56
2018-04-17T10:23:46.753Z,98351.78
2018-04-17T10:26:14.252Z,98347.59
2018-04-17T10:28:41.758Z,98350.19
2018-04-17T10:31:09.286Z,98340.16
2018-04-17T10:33:36.774Z,98345.45
2018-04-17T10:36:04.302Z,98345.69
2018-04-17T10:38:31.812Z,98347.09
2018-04-17T10:40:59.481Z,98333.33
2018-04-17T10:43:27.238Z,98344.72
2018-04-17T10:45:54.770Z,98345.64
2018-04-17T10:48:22.291Z,98348.64
2018-04-17T10:50:49.937Z,98339.49
2018-04-17T10:53:17.553Z,98342.34
2018-04-17T10:55:45.084Z,98333.91
2018-04-17T10:58:12.581Z,98344.65
2018-04-17T11:00:40.267Z,98354.17
2018-04-17T11:03:07.925Z,98361.13
2018-04-17T11:05:35.523Z,98361.31
2018-04-17T11:08:03.051Z,98347.82
2018-04-17T11:10:30.578Z,98347.68
2018-04-17T11:12:58.278Z,98347.06
2018-04-17T11:15:25.812Z,98352.42
2018-04-17T11:17:53.325Z,98352.92
2018-04-17T11:20:20.868Z,98356.59
2018-04-17T11:22:48.550Z,98353.65
2018-04-17T11:25:16.119Z,98361.92
2018-04-17T11:27:43.634Z,98366.61
2018-04-17T11:30:11.147Z,98357.77
2018-04-17T11:32:38.858Z,98357.41
2018-04-17T11:35:06.477Z,98360.41
2018-04-17T11:37:34.018Z,98358.75
2018-04-17T11:40:01.513Z,98352.83
2018-04-17T11:42:29.175Z,98359.36
2018-04-17T11:44:56.916Z,98367.29
2018-04-17T11:47:24.433Z,98373.33
2018-04-17T11:49:51.952Z,98366.86
2018-04-17T11:52:19.602Z,98366.72
2018-04-17T11:54:47.293Z,98362.05
2018-04-17T11:57:14.830Z,98370.59
2018-04-17T11:59:42.324Z,98369.71
2018-04-17T12:02:09.847Z,98360.29
2018-04-17T12:04:37.347Z,98360.44
2018-04-17T12:07:04.863Z,98365.70
2018-04-17T12:09:32.377Z,98367.36
2018-04-17T12:11:59.864Z,98370.75
2018-04-17T12:14:27.392Z,98374.57
2018-04-17T12:16:54.885Z,98364.38
2018-04-17T12:19:22.376Z,98365.97
2018-04-17T12:21:49.903Z,98361.66
2018-04-17T12:24:17.401Z,98364.00
2018-04-17T12:26:44.937Z,98357.13
2018-04-17T12:29:12.430Z,98356.16
2018-04-17T12:31:39.921Z,98355.52
2018-04-17T12:34:07.481Z,98354.50
2018-04-17T12:36:34.973Z,98368.52
2018-04-17T12:39:02.484Z,98365.00
2018-04-17T12:41:29.979Z,98365.04
2018-04-17T12:43:57.472Z,98366.94
2018-04-17T12:46:24.994Z,98359.94
2018-04-17T12:48:52.492Z,98358.19
2018-04-17T12:51:20.021Z,98360.03
2018-04-17T12:53:47.580Z,98354.69
2018-04-17T12:56:15.072Z,98354.45
2018-04-17T12:58:42.588Z,98351.16
2018-04-17T13:01:10.090Z,98337.43
2018-04-17T13:03:38.577Z,98353.96
2018-04-17T13:06:06.066Z,98354.16
2018-04-17T13:08:33.566Z,98350.67
2018-04-17T13:11:01.088Z,98354.17
2018-04-17T13:13:28.642Z,98356.53
2018-04-17T13:15:56.162Z,98354.52
2018-04-17T13:18:23.689Z,98355.77
2018-04-17T13:20:51.173Z,98354.10
2018-04-17T13:23:18.682Z,98349.31
2018-04-17T13:25:46.175Z,98356.55
2018-04-17T13:28:13.703Z,98353.53
2018-04-17T13:30:41.197Z,98351.61
2018-04-17T13:33:08.718Z,98351.20
2018-04-17T13:35:36.231Z,98349.77
2018-04-17T13:38:03.722Z,98351.98
2018-04-17T13:40:31.242Z,98344.23
2018-04-17T13:42:58.736Z,98352.55
2018-04-17T13:45:26.220Z,98346.30
2018-04-17T13:47:53.734Z,98341.34
2018-04-17T13:50:21.229Z,98338.97
2018-04-17T13:52:48.745Z,98340.34
2018-04-17T13:55:16.233Z,98340.73
2018-04-17T13:57:43.722Z,98336.28
2018-04-17T14:00:11.242Z,98327.95
2018-04-17T14:02:38.800Z,98343.44
2018-04-17T14:05:07.273Z,98333.13
2018-04-17T14:07:34.774Z,98335.02
2018-04-17T14:10:02.279Z,98334.09
2018-04-17T14:12:29.801Z,98331.93
2018-04-17T14:14:57.291Z,98335.38
2018-04-17T14:17:24.824Z,98337.49
2018-04-17T14:19:52.324Z,98339.91
2018-04-17T14:22:19.818Z,98339.26
2018-04-17T14:24:47.337Z,98344.30
2018-04-17T14:27:14.842Z,98346.48
2018-04-17T14:29:42.377Z,98338.48
2018-04-17T14:32:09.873Z,98344.52
2018-04-17T14:34:37.402Z,98349.27
2018-04-17T14:37:04.933Z,98346.05
2018-04-17T14:39:32.522Z,98345.77
2018-04-17T14:42:00.053Z,98349.61
2018-04-17T14:44:27.559Z,98356.78
2018-04-17T14:46:55.128Z,98349.34
2018-04-17T14:49:22.666Z,98351.28
2018-04-17T14:51:50.167Z,98355.17
2018-04-17T14:54:17.682Z,98355.48
2018-04-17T14:56:45.184Z,98354.58
2018-04-17T14:59:12.681Z,98354.75
2018-04-17T15:01:40.198Z,98357.22
2018-04-17T15:04:07.686Z,98354.59
2018-04-17T15:06:35.210Z,98361.70
2018-04-17T15:09:02.716Z,98353.72
2018-04-17T15:11:30.201Z,98360.68
2018-04-17T15:13:57.726Z,98352.56
2018-04-17T15:16:25.222Z,98355.45
2018-04-17T15:18:53.729Z,98352.17
2018-04-17T15:21:21.213Z,98353.66
2018-04-17T15:23:48.701Z,98349.89
2018-04-17T15:26:16.222Z,98353.04
2018-04-17T15:28:43.722Z,98354.58
2018-04-17T15:31:11.240Z,98356.17
2018-04-17T15:33:38.720Z,98359.27
2018-04-17T15:36:06.210Z,98357.84
2018-04-17T15:38:33.737Z,98358.22
2018-04-17T15:41:01.227Z,98360.73
2018-04-17T15:43:28.731Z,98365.02
2018-04-17T15:45:56.208Z,98357.97
2018-04-17T15:48:23.706Z,98362.91
2018-04-17T15:50:51.254Z,98369.74
2018-04-17T15:53:18.730Z,98368.66
2018-04-17T15:55:46.230Z,98362.36
2018-04-17T15:58:13.714Z,98369.21
2018-04-17T16:00:41.220Z,98369.27
2018-04-17T16:03:08.719Z,98371.48
2018-04-17T16:05:36.192Z,98372.22
2018-04-17T16:08:03.687Z,98375.08
2018-04-17T16:10:31.162Z,98373.02
2018-04-17T16:12:58.663Z,98356.64
2018-04-17T16:15:26.155Z,98377.70
2018-04-17T16:17:53.626Z,98375.11
2018-04-17T16:20:21.130Z,98381.44
2018-04-17T16:22:48.607Z,98381.22
2018-04-17T16:25:16.079Z,98377.84
2018-04-17T16:27:43.583Z,98377.45
2018-04-17T16:30:11.064Z,98375.96
2018-04-17T16:32:38.563Z,98357.84
2018-04-17T16:35:06.036Z,98369.06
2018-04-17T16:37:33.506Z,98371.89
2018-04-17T16:40:00.993Z,98375.84
2018-04-17T16:42:28.483Z,98379.72
2018-04-17T16:44:56.000Z,98388.96
2018-04-17T16:47:23.490Z,98389.81
2018-04-17T16:49:51.061Z,98384.97
2018-04-17T16:52:18.571Z,98384.28
2018-04-17T16:54:46.067Z,98384.72
2018-04-17T16:57:13.550Z,98386.69
2018-04-17T16:59:41.072Z,98391.70
2018-04-17T17:02:08.582Z,98388.88
2018-04-17T17:04:36.073Z,98393.35
2018-04-17T17:07:03.589Z,98393.70
2018-04-17T17:09:31.077Z,98395.72
2018-04-17T17:11:58.613Z,98404.36
2018-04-17T17:14:26.114Z,98410.39
2018-04-17T17:16:53.619Z,98407.40
2018-04-17T17:19:21.135Z,98404.05
2018-04-17T17:21:48.625Z,98405.94
2018-04-17T17:24:16.142Z,98412.84
2018-04-17T17:26:43.633Z,98410.59
2018-04-17T17:29:11.119Z,98418.23
2018-04-17T17:31:38.678Z,98426.61
2018-04-17T17:34:06.225Z,98422.79
2018-04-17T17:36:33.799Z,98424.17
2018-04-17T17:39:01.372Z,98428.42
2018-04-17T17:41:28.913Z,98436.51
2018-04-17T17:43:56.454Z,98442.52
2018-04-17T17:46:23.953Z,98436.66
2018-04-17T17:48:51.575Z,98442.96
2018-04-17T17:51:19.145Z,98443.39
2018-04-17T17:53:46.659Z,98445.48
2018-04-17T17:56:14.245Z,98456.54
2018-04-17T17:58:41.752Z,98461.49
2018-04-17T18:01:09.382Z,98464.08
2018-04-17T18:03:36.981Z,98465.44
2018-04-17T18:06:05.461Z,98474.48
2018-04-17T18:08:33.085Z,98473.02
2018-04-17T18:11:00.614Z,98479.19
2018-04-17T18:13:28.156Z,98485.73
2018-04-17T18:15:55.645Z,98484.28
2018-04-17T18:18:23.125Z,98489.95
2018-04-17T18:20:51.605Z,98496.00
2018-04-17T18:23:19.102Z,98497.72
2018-04-17T18:25:46.655Z,98506.03
2018-04-17T18:28:14.153Z,98503.75
2018-04-17T18:30:41.651Z,98507.37
2018-04-17T18:33:09.164Z,98516.00
2018-04-17T18:35:36.646Z,98519.90
2018-04-17T18:38:04.169Z,98535.47
2018-04-17T18:40:31.667Z,98533.95
2018-04-17T18:42:59.167Z,98541.36
2018-04-17T18:45:26.682Z,98538.70
2018-04-17T18:47:54.173Z,98542.52
2018-04-17T18:50:21.689Z,98544.42
2018-04-17T18:52:49.191Z,98546.16
2018-04-17T18:55:16.687Z,98550.83
2018-04-17T18:57:44.200Z,98552.44
2018-04-17T19:00:11.757Z,98552.44
2018-04-17T19:02:39.277Z,98550.18
2018-04-17T19:05:06.774Z,98554.13
2018-04-17T19:07:34.274Z,98562.38
2018-04-17T19:10:01.790Z,98569.73
2018-04-17T19:12:29.289Z,98573.64
2018-04-17T19:14:56.808Z,98579.74
2018-04-17T19:17:24.294Z,98579.70
2018-04-17T19:19:51.786Z,98582.70
2018-04-17T19:22:19.713Z,98592.62
2018-04-17T19:24:47.226Z,98594.65
2018-04-17T19:27:14.744Z,98597.89
2018-04-17T19:29:42.224Z,98595.81
2018-04-17T19:32:09.737Z,98604.74
2018-04-17T19:34:37.254Z,98602.66
2018-04-17T19:37:04.758Z,98607.91
2018-04-17T19:39:32.283Z,98613.21
2018-04-17T19:41:59.768Z,98611.35
2018-04-17T19:44:27.280Z,98613.48
2018-04-17T19:46:54.788Z,98616.92
2018-04-17T19:49:22.278Z,98623.25
2018-04-17T19:51:49.796Z,98628.40
2018-04-17T19:54:17.334Z,98630.45
2018-04-17T19:56:44.821Z,98635.77
2018-04-17T19:59:12.334Z,98634.91
2018-04-17T20:01:39.823Z,98642.34
2018-04-17T20:04:07.342Z,98646.09
2018-04-17T20:06:34.848Z,98642.37
2018-04-17T20:09:02.342Z,98647.35
2018-04-17T20:11:30.797Z,98649.30
2018-04-17T20:13:58.297Z,98649.84
2018-04-17T20:16:25.809Z,98647.45
2018-04-17T20:18:53.305Z,98627.09
2018-04-17T20:21:20.797Z,98649.61
2018-04-17T20:23:48.308Z,98645.28
2018-04-17T20:26:15.801Z,98653.19
2018-04-17T20:28:43.313Z,98648.30
2018-04-17T20:31:10.805Z,98660.31
2018-04-17T20:33:38.300Z,98661.06
2018-04-17T20:36:05.816Z,98662.89
2018-04-17T20:38:33.314Z,98660.66
2018-04-17T20:41:00.824Z,98662.09
2018-04-17T20:43:28.338Z,98667.33
2018-04-17T20:45:55.830Z,98665.14
2018-04-17T20:48:23.337Z,98665.25
2018-04-17T20:50:50.825Z,98669.94
2018-04-17T20:53:18.380Z,98670.19
2018-04-17T20:55:45.915Z,98671.53
2018-04-17T20:58:13.410Z,98670.48
2018-04-17T21:00:40.928Z,98670.08
2018-04-17T21:03:08.455Z,98650.78
2018-04-17T21:05:35.973Z,98669.31
2018-04-17T21:08:03.477Z,98674.84
2018-04-17T21:10:30.961Z,98677.56
2018-04-17T21:12:58.473Z,98675.39
2018-04-17T21:15:25.960Z,98676.97
2018-04-17T21:17:53.472Z,98685.05
2018-04-17T21:20:20.965Z,98686.30
2018-04-17T21:22:48.458Z,98692.73
2018-04-17T21:25:15.970Z,98687.67
2018-04-17T21:27:43.509Z,98685.55
2018-04-17T21:30:11.033Z,98689.89
2018-04-17T21:32:38.523Z,98684.92
2018-04-17T21:35:06.024Z,98692.59
2018-04-17T21:37:33.543Z,98691.39
2018-04-17T21:40:01.034Z,98694.36
2018-04-17T21:42:28.558Z,98698.72
2018-04-17T21:44:56.049Z,98697.57
2018-04-17T21:47:23.537Z,98706.14
2018-04-17T21:49:51.050Z,98705.81
2018-04-17T21:52:18.545Z,98711.72
2018-04-17T21:54:46.069Z,98711.25
2018-04-17T21:57:13.562Z,98711.41
2018-04-17T21:59:41.046Z,98720.34
2018-04-17T22:02:08.553Z,98717.09
2018-04-17T22:04:36.051Z,98723.30
2018-04-17T22:07:03.561Z,98725.03
2018-04-17T22:09:31.050Z,98734.04
2018-04-17T22:11:58.586Z,98732.11
2018-04-17T22:14:26.162Z,98734.46
2018-04-17T22:16:53.659Z,98725.83
2018-04-17T22:19:21.181Z,98728.27
2018-04-17T22:21:48.672Z,98726.42
2018-04-17T22:24:16.164Z,98730.06
2018-04-17T22:26:43.715Z,98727.64
2018-04-17T22:29:11.214Z,98733.44
2018-04-17T22:31:38.732Z,98732.67
2018-04-17T22:34:06.246Z,98733.80
2018-04-17T22:36:33.745Z,98738.88
2018-04-17T22:39:01.262Z,98743.00
2018-04-17T22:41:28.769Z,98746.81
2018-04-17T22:43:56.289Z,98743.77
2018-04-17T22:46:23.789Z,98744.83
2018-04-17T22:48:51.290Z,98749.36
2018-04-17T22:51:18.804Z,98750.27
2018-04-17T22:53:46.310Z,98755.91
2018-04-17T22:56:13.820Z,98755.55
2018-04-17T22:58:41.304Z,98755.39
2018-04-17T23:01:08.802Z,98765.87
2018-04-17T23:03:36.317Z,98761.61
2018-04-17T23:06:03.804Z,98769.69
2018-04-17T23:08:31.330Z,98772.22
2018-04-17T23:10:58.820Z,98774.66
2018-04-17T23:13:26.309Z,98774.37
2018-04-17T23:15:53.844Z,98773.48
2018-04-17T23:18:21.345Z,98777.30
2018-04-17T23:20:48.865Z,98777.61
2018-04-17T23:23:16.370Z,98775.88
2018-04-17T23:25:43.892Z,98786.23
2018-04-17T23:28:11.411Z,98781.29
2018-04-17T23:30:38.910Z,98791.34
2018-04-17T23:33:06.433Z,98790.77
2018-04-17T23:35:33.933Z,98791.91
2018-04-17T23:38:01.431Z,98798.14
2018-04-17T23:40:28.953Z,98797.18
2018-04-17T23:42:56.450Z,98802.34
2018-04-17T23:45:23.949Z,98801.31
2018-04-17T23:47:51.461Z,98796.68
2018-04-17T23:50:18.962Z,98799.71
2018-04-17T23:52:46.466Z,98796.30
2018-04-17T23:55:13.984Z,98801.84
2018-04-17T23:57:41.478Z,98801.95
